sensor_id;sensor_type;location;lat;lon;timestamp;P1;durP1;ratioP1;P2;durP2;ratioP2
19814;SDS011;10067;53.092;8.800;2023-04-01T00:00:58;23.40;;;14.63;;
19814;SDS011;10067;53.092;8.800;2023-04-01T00:03:24;23.92;;;14.68;;
19814;SDS011;10067;53.092;8.800;2023-04-01T00:05:53;25.88;;;16.08;;
19814;SDS011;10067;53.092;8.800;2023-04-01T00:08:19;27.70;;;15.90;;
19814;SDS011;10067;53.092;8.800;2023-04-01T00:10:46;27.38;;;16.52;;
19814;SDS011;10067;53.092;8.800;2023-04-01T00:13:12;26.08;;;16.35;;
19814;SDS011;10067;53.092;8.800;2023-04-01T00:15:39;23.85;;;15.63;;
19814;SDS011;10067;53.092;8.800;2023-04-01T00:18:05;24.98;;;15.80;;
19814;SDS011;10067;53.092;8.800;2023-04-01T00:20:32;25.85;;;17.63;;
19814;SDS011;10067;53.092;8.800;2023-04-01T00:22:59;27.85;;;16.60;;
19814;SDS011;10067;53.092;8.800;2023-04-01T00:25:26;25.02;;;16.05;;
19814;SDS011;10067;53.092;8.800;2023-04-01T00:27:53;29.77;;;17.73;;
19814;SDS011;10067;53.092;8.800;2023-04-01T00:30:19;28.02;;;16.83;;
19814;SDS011;10067;53.092;8.800;2023-04-01T00:32:46;25.45;;;17.10;;
19814;SDS011;10067;53.092;8.800;2023-04-01T00:35:12;28.02;;;17.15;;
19814;SDS011;10067;53.092;8.800;2023-04-01T00:37:38;28.92;;;16.70;;
19814;SDS011;10067;53.092;8.800;2023-04-01T00:40:08;24.80;;;15.70;;
19814;SDS011;10067;53.092;8.800;2023-04-01T00:42:46;22.52;;;16.40;;
19814;SDS011;10067;53.092;8.800;2023-04-01T00:45:26;26.20;;;16.40;;
19814;SDS011;10067;53.092;8.800;2023-04-01T00:47:53;24.92;;;16.48;;
19814;SDS011;10067;53.092;8.800;2023-04-01T00:50:19;24.98;;;17.42;;
19814;SDS011;10067;53.092;8.800;2023-04-01T00:52:46;23.23;;;16.75;;
19814;SDS011;10067;53.092;8.800;2023-04-01T00:55:14;25.60;;;17.55;;
19814;SDS011;10067;53.092;8.800;2023-04-01T00:57:41;23.67;;;17.23;;
19814;SDS011;10067;53.092;8.800;2023-04-01T01:00:10;23.83;;;15.90;;
19814;SDS011;10067;53.092;8.800;2023-04-01T01:02:38;30.60;;;18.02;;
19814;SDS011;10067;53.092;8.800;2023-04-01T01:05:07;26.55;;;17.30;;
19814;SDS011;10067;53.092;8.800;2023-04-01T01:07:35;23.17;;;16.13;;
19814;SDS011;10067;53.092;8.800;2023-04-01T01:10:07;21.20;;;15.70;;
19814;SDS011;10067;53.092;8.800;2023-04-01T01:12:37;27.90;;;16.75;;
19814;SDS011;10067;53.092;8.800;2023-04-01T01:15:07;22.13;;;15.70;;
19814;SDS011;10067;53.092;8.800;2023-04-01T01:17:38;24.05;;;15.85;;
19814;SDS011;10067;53.092;8.800;2023-04-01T01:22:57;25.13;;;16.15;;
19814;SDS011;10067;53.092;8.800;2023-04-01T01:25:32;22.27;;;16.67;;
19814;SDS011;10067;53.092;8.800;2023-04-01T01:28:12;23.02;;;15.98;;
19814;SDS011;10067;53.092;8.800;2023-04-01T01:30:43;25.75;;;15.98;;
19814;SDS011;10067;53.092;8.800;2023-04-01T01:33:20;22.52;;;17.17;;
19814;SDS011;10067;53.092;8.800;2023-04-01T01:35:51;22.27;;;15.63;;
19814;SDS011;10067;53.092;8.800;2023-04-01T01:38:19;23.83;;;16.33;;
19814;SDS011;10067;53.092;8.800;2023-04-01T01:40:48;20.05;;;16.17;;
19814;SDS011;10067;53.092;8.800;2023-04-01T01:43:17;25.48;;;16.55;;
19814;SDS011;10067;53.092;8.800;2023-04-01T01:45:46;22.35;;;15.77;;
19814;SDS011;10067;53.092;8.800;2023-04-01T01:48:13;22.75;;;16.15;;
19814;SDS011;10067;53.092;8.800;2023-04-01T01:50:41;22.08;;;15.82;;
19814;SDS011;10067;53.092;8.800;2023-04-01T01:53:11;23.30;;;16.40;;
19814;SDS011;10067;53.092;8.800;2023-04-01T01:55:38;23.55;;;16.92;;
19814;SDS011;10067;53.092;8.800;2023-04-01T01:58:06;20.90;;;15.82;;
19814;SDS011;10067;53.092;8.800;2023-04-01T02:00:33;26.90;;;16.60;;
19814;SDS011;10067;53.092;8.800;2023-04-01T02:03:01;22.13;;;16.00;;
19814;SDS011;10067;53.092;8.800;2023-04-01T02:05:27;24.00;;;16.15;;
19814;SDS011;10067;53.092;8.800;2023-04-01T02:07:57;22.67;;;16.90;;
19814;SDS011;10067;53.092;8.800;2023-04-01T02:10:27;20.63;;;16.95;;
19814;SDS011;10067;53.092;8.800;2023-04-01T02:12:56;23.95;;;16.08;;
19814;SDS011;10067;53.092;8.800;2023-04-01T02:15:23;24.65;;;17.63;;
19814;SDS011;10067;53.092;8.800;2023-04-01T02:17:51;22.25;;;16.40;;
19814;SDS011;10067;53.092;8.800;2023-04-01T02:20:19;22.65;;;16.95;;
19814;SDS011;10067;53.092;8.800;2023-04-01T02:22:46;22.25;;;16.02;;
19814;SDS011;10067;53.092;8.800;2023-04-01T02:25:14;24.58;;;16.95;;
19814;SDS011;10067;53.092;8.800;2023-04-01T02:27:43;25.35;;;16.50;;
19814;SDS011;10067;53.092;8.800;2023-04-01T02:30:11;21.08;;;16.55;;
19814;SDS011;10067;53.092;8.800;2023-04-01T02:32:37;23.38;;;17.35;;
19814;SDS011;10067;53.092;8.800;2023-04-01T02:35:05;25.02;;;16.95;;
19814;SDS011;10067;53.092;8.800;2023-04-01T02:37:31;22.85;;;16.92;;
19814;SDS011;10067;53.092;8.800;2023-04-01T02:39:58;22.05;;;16.58;;
19814;SDS011;10067;53.092;8.800;2023-04-01T02:42:25;24.10;;;17.13;;
19814;SDS011;10067;53.092;8.800;2023-04-01T02:44:53;22.80;;;16.80;;
19814;SDS011;10067;53.092;8.800;2023-04-01T02:47:19;23.50;;;16.83;;
19814;SDS011;10067;53.092;8.800;2023-04-01T02:49:45;20.35;;;16.73;;
19814;SDS011;10067;53.092;8.800;2023-04-01T02:52:12;22.23;;;16.10;;
19814;SDS011;10067;53.092;8.800;2023-04-01T02:54:38;21.30;;;16.13;;
19814;SDS011;10067;53.092;8.800;2023-04-01T02:57:05;21.85;;;15.73;;
19814;SDS011;10067;53.092;8.800;2023-04-01T02:59:31;20.98;;;17.00;;
19814;SDS011;10067;53.092;8.800;2023-04-01T03:01:59;22.23;;;17.00;;
19814;SDS011;10067;53.092;8.800;2023-04-01T03:04:25;20.75;;;15.80;;
19814;SDS011;10067;53.092;8.800;2023-04-01T03:06:52;19.38;;;16.30;;
19814;SDS011;10067;53.092;8.800;2023-04-01T03:09:18;22.67;;;15.07;;
19814;SDS011;10067;53.092;8.800;2023-04-01T03:11:45;23.95;;;16.73;;
19814;SDS011;10067;53.092;8.800;2023-04-01T03:14:11;28.00;;;16.33;;
19814;SDS011;10067;53.092;8.800;2023-04-01T03:16:37;23.40;;;15.90;;
19814;SDS011;10067;53.092;8.800;2023-04-01T03:19:05;22.60;;;16.08;;
19814;SDS011;10067;53.092;8.800;2023-04-01T03:21:31;25.70;;;15.20;;
19814;SDS011;10067;53.092;8.800;2023-04-01T03:23:58;22.10;;;15.40;;
19814;SDS011;10067;53.092;8.800;2023-04-01T03:26:24;21.50;;;14.95;;
19814;SDS011;10067;53.092;8.800;2023-04-01T03:28:51;22.05;;;14.63;;
19814;SDS011;10067;53.092;8.800;2023-04-01T03:31:18;19.65;;;14.80;;
19814;SDS011;10067;53.092;8.800;2023-04-01T03:33:44;25.88;;;15.75;;
19814;SDS011;10067;53.092;8.800;2023-04-01T03:36:12;17.10;;;13.23;;
19814;SDS011;10067;53.092;8.800;2023-04-01T03:38:39;17.42;;;13.70;;
19814;SDS011;10067;53.092;8.800;2023-04-01T03:41:11;20.10;;;14.40;;
19814;SDS011;10067;53.092;8.800;2023-04-01T03:43:38;16.67;;;13.25;;
19814;SDS011;10067;53.092;8.800;2023-04-01T03:46:04;15.10;;;12.50;;
19814;SDS011;10067;53.092;8.800;2023-04-01T03:48:30;15.32;;;11.77;;
19814;SDS011;10067;53.092;8.800;2023-04-01T03:50:57;17.65;;;12.95;;
19814;SDS011;10067;53.092;8.800;2023-04-01T03:53:25;20.65;;;13.48;;
19814;SDS011;10067;53.092;8.800;2023-04-01T03:55:52;18.80;;;12.80;;
19814;SDS011;10067;53.092;8.800;2023-04-01T03:58:18;19.85;;;13.32;;
19814;SDS011;10067;53.092;8.800;2023-04-01T04:00:45;17.23;;;12.40;;
19814;SDS011;10067;53.092;8.800;2023-04-01T04:03:11;18.35;;;12.18;;
19814;SDS011;10067;53.092;8.800;2023-04-01T04:05:45;16.70;;;12.57;;
19814;SDS011;10067;53.092;8.800;2023-04-01T04:08:12;15.30;;;12.10;;
19814;SDS011;10067;53.092;8.800;2023-04-01T04:10:39;15.77;;;11.70;;
19814;SDS011;10067;53.092;8.800;2023-04-01T04:13:06;18.33;;;12.52;;
19814;SDS011;10067;53.092;8.800;2023-04-01T04:15:32;15.85;;;11.60;;
19814;SDS011;10067;53.092;8.800;2023-04-01T04:17:59;18.48;;;11.65;;
19814;SDS011;10067;53.092;8.800;2023-04-01T04:20:25;14.82;;;11.00;;
19814;SDS011;10067;53.092;8.800;2023-04-01T04:22:52;14.82;;;11.45;;
19814;SDS011;10067;53.092;8.800;2023-04-01T04:25:18;16.10;;;11.00;;
19814;SDS011;10067;53.092;8.800;2023-04-01T04:27:46;14.98;;;10.88;;
19814;SDS011;10067;53.092;8.800;2023-04-01T04:30:12;17.65;;;10.55;;
19814;SDS011;10067;53.092;8.800;2023-04-01T04:32:39;16.33;;;11.40;;
19814;SDS011;10067;53.092;8.800;2023-04-01T04:35:07;16.80;;;10.75;;
19814;SDS011;10067;53.092;8.800;2023-04-01T04:37:35;16.25;;;9.98;;
19814;SDS011;10067;53.092;8.800;2023-04-01T04:40:02;15.18;;;10.63;;
19814;SDS011;10067;53.092;8.800;2023-04-01T04:42:29;11.63;;;9.80;;
19814;SDS011;10067;53.092;8.800;2023-04-01T04:44:57;13.20;;;10.18;;
19814;SDS011;10067;53.092;8.800;2023-04-01T04:47:24;18.58;;;10.48;;
19814;SDS011;10067;53.092;8.800;2023-04-01T04:49:50;11.68;;;9.70;;
19814;SDS011;10067;53.092;8.800;2023-04-01T04:52:17;11.95;;;8.73;;
19814;SDS011;10067;53.092;8.800;2023-04-01T04:54:43;13.82;;;9.82;;
19814;SDS011;10067;53.092;8.800;2023-04-01T04:57:10;16.95;;;9.95;;
19814;SDS011;10067;53.092;8.800;2023-04-01T04:59:36;13.00;;;9.45;;
19814;SDS011;10067;53.092;8.800;2023-04-01T05:02:04;17.85;;;9.40;;
19814;SDS011;10067;53.092;8.800;2023-04-01T05:04:34;15.00;;;9.63;;
19814;SDS011;10067;53.092;8.800;2023-04-01T05:07:00;13.57;;;10.25;;
19814;SDS011;10067;53.092;8.800;2023-04-01T05:09:27;14.40;;;10.43;;
19814;SDS011;10067;53.092;8.800;2023-04-01T05:11:53;11.30;;;9.05;;
19814;SDS011;10067;53.092;8.800;2023-04-01T05:14:20;11.52;;;8.65;;
19814;SDS011;10067;53.092;8.800;2023-04-01T05:16:46;11.63;;;9.32;;
19814;SDS011;10067;53.092;8.800;2023-04-01T05:19:14;16.80;;;9.32;;
19814;SDS011;10067;53.092;8.800;2023-04-01T05:21:43;14.05;;;9.02;;
19814;SDS011;10067;53.092;8.800;2023-04-01T05:24:09;17.20;;;9.57;;
19814;SDS011;10067;53.092;8.800;2023-04-01T05:26:36;12.95;;;9.18;;
19814;SDS011;10067;53.092;8.800;2023-04-01T05:29:02;15.00;;;9.73;;
19814;SDS011;10067;53.092;8.800;2023-04-01T05:31:29;14.23;;;9.73;;
19814;SDS011;10067;53.092;8.800;2023-04-01T05:33:56;14.90;;;8.70;;
19814;SDS011;10067;53.092;8.800;2023-04-01T05:36:23;12.55;;;8.55;;
19814;SDS011;10067;53.092;8.800;2023-04-01T05:38:50;11.30;;;8.73;;
19814;SDS011;10067;53.092;8.800;2023-04-01T05:41:16;11.00;;;8.48;;
19814;SDS011;10067;53.092;8.800;2023-04-01T05:43:43;16.40;;;8.68;;
19814;SDS011;10067;53.092;8.800;2023-04-01T05:46:09;10.23;;;8.38;;
19814;SDS011;10067;53.092;8.800;2023-04-01T05:48:36;12.43;;;9.25;;
19814;SDS011;10067;53.092;8.800;2023-04-01T05:51:02;12.07;;;8.55;;
19814;SDS011;10067;53.092;8.800;2023-04-01T05:53:30;14.57;;;11.32;;
19814;SDS011;10067;53.092;8.800;2023-04-01T05:55:57;14.90;;;11.10;;
19814;SDS011;10067;53.092;8.800;2023-04-01T05:58:23;15.05;;;9.50;;
19814;SDS011;10067;53.092;8.800;2023-04-01T06:00:49;10.63;;;9.25;;
19814;SDS011;10067;53.092;8.800;2023-04-01T06:03:16;15.88;;;10.20;;
19814;SDS011;10067;53.092;8.800;2023-04-01T06:05:43;11.75;;;8.07;;
19814;SDS011;10067;53.092;8.800;2023-04-01T06:08:10;10.10;;;8.68;;
19814;SDS011;10067;53.092;8.800;2023-04-01T06:10:41;11.40;;;8.60;;
19814;SDS011;10067;53.092;8.800;2023-04-01T06:13:09;8.40;;;7.50;;
19814;SDS011;10067;53.092;8.800;2023-04-01T06:15:39;9.35;;;7.70;;
19814;SDS011;10067;53.092;8.800;2023-04-01T06:21:07;13.52;;;8.13;;
19814;SDS011;10067;53.092;8.800;2023-04-01T06:23:44;10.25;;;8.82;;
19814;SDS011;10067;53.092;8.800;2023-04-01T06:26:18;8.57;;;7.68;;
19814;SDS011;10067;53.092;8.800;2023-04-01T06:31:36;12.27;;;9.45;;
19814;SDS011;10067;53.092;8.800;2023-04-01T06:34:20;12.10;;;9.10;;
19814;SDS011;10067;53.092;8.800;2023-04-01T06:37:01;11.93;;;9.25;;
19814;SDS011;10067;53.092;8.800;2023-04-01T06:39:36;10.55;;;7.70;;
19814;SDS011;10067;53.092;8.800;2023-04-01T06:44:55;8.90;;;8.00;;
19814;SDS011;10067;53.092;8.800;2023-04-01T06:47:29;7.63;;;6.68;;
19814;SDS011;10067;53.092;8.800;2023-04-01T06:50:00;9.82;;;6.85;;
19814;SDS011;10067;53.092;8.800;2023-04-01T06:52:32;12.90;;;7.15;;
19814;SDS011;10067;53.092;8.800;2023-04-01T06:55:06;8.60;;;6.57;;
19814;SDS011;10067;53.092;8.800;2023-04-01T06:57:39;7.63;;;6.60;;
19814;SDS011;10067;53.092;8.800;2023-04-01T07:02:41;8.85;;;6.40;;
19814;SDS011;10067;53.092;8.800;2023-04-01T07:05:10;6.93;;;5.60;;
19814;SDS011;10067;53.092;8.800;2023-04-01T07:07:38;6.32;;;5.38;;
19814;SDS011;10067;53.092;8.800;2023-04-01T07:10:09;7.25;;;5.68;;
19814;SDS011;10067;53.092;8.800;2023-04-01T07:12:38;5.90;;;5.00;;
19814;SDS011;10067;53.092;8.800;2023-04-01T07:15:11;7.28;;;5.78;;
19814;SDS011;10067;53.092;8.800;2023-04-01T07:17:41;5.80;;;4.55;;
19814;SDS011;10067;53.092;8.800;2023-04-01T07:20:11;6.20;;;5.30;;
19814;SDS011;10067;53.092;8.800;2023-04-01T07:22:39;5.35;;;4.85;;
19814;SDS011;10067;53.092;8.800;2023-04-01T07:25:11;6.50;;;5.05;;
19814;SDS011;10067;53.092;8.800;2023-04-01T07:27:38;7.30;;;4.50;;
19814;SDS011;10067;53.092;8.800;2023-04-01T07:30:06;6.82;;;4.50;;
19814;SDS011;10067;53.092;8.800;2023-04-01T07:32:39;5.68;;;4.68;;
19814;SDS011;10067;53.092;8.800;2023-04-01T07:35:16;5.28;;;4.78;;
19814;SDS011;10067;53.092;8.800;2023-04-01T07:37:46;7.78;;;4.80;;
19814;SDS011;10067;53.092;8.800;2023-04-01T07:40:21;7.07;;;4.82;;
19814;SDS011;10067;53.092;8.800;2023-04-01T07:45:31;4.80;;;3.88;;
19814;SDS011;10067;53.092;8.800;2023-04-01T07:48:05;4.63;;;4.18;;
19814;SDS011;10067;53.092;8.800;2023-04-01T07:50:37;12.63;;;6.82;;
19814;SDS011;10067;53.092;8.800;2023-04-01T07:53:07;5.95;;;4.80;;
19814;SDS011;10067;53.092;8.800;2023-04-01T07:55:39;11.38;;;6.88;;
19814;SDS011;10067;53.092;8.800;2023-04-01T07:58:09;10.82;;;8.07;;
19814;SDS011;10067;53.092;8.800;2023-04-01T08:00:40;4.70;;;4.30;;
19814;SDS011;10067;53.092;8.800;2023-04-01T08:03:14;5.40;;;3.47;;
19814;SDS011;10067;53.092;8.800;2023-04-01T08:05:47;4.80;;;4.00;;
19814;SDS011;10067;53.092;8.800;2023-04-01T08:08:17;6.63;;;4.10;;
19814;SDS011;10067;53.092;8.800;2023-04-01T08:10:46;4.22;;;3.55;;
19814;SDS011;10067;53.092;8.800;2023-04-01T08:13:15;4.03;;;3.60;;
19814;SDS011;10067;53.092;8.800;2023-04-01T08:15:48;9.68;;;5.53;;
19814;SDS011;10067;53.092;8.800;2023-04-01T08:18:19;5.32;;;4.13;;
19814;SDS011;10067;53.092;8.800;2023-04-01T08:20:52;5.28;;;4.28;;
19814;SDS011;10067;53.092;8.800;2023-04-01T08:23:20;3.72;;;3.33;;
19814;SDS011;10067;53.092;8.800;2023-04-01T08:25:49;4.45;;;2.92;;
19814;SDS011;10067;53.092;8.800;2023-04-01T08:28:17;3.50;;;2.83;;
19814;SDS011;10067;53.092;8.800;2023-04-01T08:30:47;5.32;;;3.17;;
19814;SDS011;10067;53.092;8.800;2023-04-01T08:33:15;3.45;;;2.80;;
19814;SDS011;10067;53.092;8.800;2023-04-01T08:35:45;5.88;;;3.50;;
19814;SDS011;10067;53.092;8.800;2023-04-01T08:38:15;3.30;;;2.92;;
19814;SDS011;10067;53.092;8.800;2023-04-01T08:43:36;6.47;;;3.13;;
19814;SDS011;10067;53.092;8.800;2023-04-01T08:46:10;5.35;;;2.47;;
19814;SDS011;10067;53.092;8.800;2023-04-01T08:48:43;3.35;;;2.47;;
19814;SDS011;10067;53.092;8.800;2023-04-01T08:54:06;5.18;;;3.13;;
19814;SDS011;10067;53.092;8.800;2023-04-01T08:56:40;5.25;;;3.70;;
19814;SDS011;10067;53.092;8.800;2023-04-01T08:59:21;5.13;;;2.97;;
19814;SDS011;10067;53.092;8.800;2023-04-01T09:04:46;3.50;;;2.67;;
19814;SDS011;10067;53.092;8.800;2023-04-01T09:07:22;2.95;;;2.67;;
19814;SDS011;10067;53.092;8.800;2023-04-01T09:10:04;5.13;;;2.97;;
19814;SDS011;10067;53.092;8.800;2023-04-01T09:12:44;4.55;;;2.88;;
19814;SDS011;10067;53.092;8.800;2023-04-01T09:15:20;6.28;;;2.53;;
19814;SDS011;10067;53.092;8.800;2023-04-01T09:18:02;4.40;;;3.10;;
19814;SDS011;10067;53.092;8.800;2023-04-01T09:20:37;3.13;;;2.25;;
19814;SDS011;10067;53.092;8.800;2023-04-01T09:23:10;5.13;;;2.70;;
19814;SDS011;10067;53.092;8.800;2023-04-01T09:25:47;4.95;;;2.47;;
19814;SDS011;10067;53.092;8.800;2023-04-01T09:28:19;7.13;;;2.42;;
19814;SDS011;10067;53.092;8.800;2023-04-01T09:30:48;3.45;;;2.22;;
19814;SDS011;10067;53.092;8.800;2023-04-01T09:33:29;3.03;;;1.92;;
19814;SDS011;10067;53.092;8.800;2023-04-01T09:36:03;2.90;;;1.95;;
19814;SDS011;10067;53.092;8.800;2023-04-01T09:38:30;4.97;;;2.00;;
19814;SDS011;10067;53.092;8.800;2023-04-01T09:41:07;3.25;;;1.50;;
19814;SDS011;10067;53.092;8.800;2023-04-01T09:43:43;3.70;;;2.70;;
19814;SDS011;10067;53.092;8.800;2023-04-01T09:46:15;2.08;;;1.60;;
19814;SDS011;10067;53.092;8.800;2023-04-01T09:51:31;1.80;;;1.70;;
19814;SDS011;10067;53.092;8.800;2023-04-01T09:54:04;2.78;;;2.00;;
19814;SDS011;10067;53.092;8.800;2023-04-01T09:56:42;2.42;;;1.90;;
19814;SDS011;10067;53.092;8.800;2023-04-01T09:59:43;2.53;;;1.73;;
19814;SDS011;10067;53.092;8.800;2023-04-01T10:02:18;2.88;;;1.90;;
19814;SDS011;10067;53.092;8.800;2023-04-01T10:07:47;2.22;;;1.75;;
19814;SDS011;10067;53.092;8.800;2023-04-01T10:10:24;3.22;;;1.98;;
19814;SDS011;10067;53.092;8.800;2023-04-01T10:13:12;2.60;;;2.00;;
19814;SDS011;10067;53.092;8.800;2023-04-01T10:15:49;3.13;;;1.75;;
19814;SDS011;10067;53.092;8.800;2023-04-01T10:21:18;4.50;;;2.50;;
19814;SDS011;10067;53.092;8.800;2023-04-01T10:23:54;2.00;;;0.90;;
19814;SDS011;10067;53.092;8.800;2023-04-01T10:29:24;1.33;;;1.00;;
19814;SDS011;10067;53.092;8.800;2023-04-01T10:40:20;1.55;;;1.38;;
19814;SDS011;10067;53.092;8.800;2023-04-01T10:43:05;3.00;;;1.10;;
19814;SDS011;10067;53.092;8.800;2023-04-01T10:45:44;1.10;;;1.00;;
19814;SDS011;10067;53.092;8.800;2023-04-01T10:48:24;1.38;;;1.20;;
19814;SDS011;10067;53.092;8.800;2023-04-01T10:51:04;3.92;;;2.58;;
19814;SDS011;10067;53.092;8.800;2023-04-01T10:53:37;2.15;;;1.50;;
19814;SDS011;10067;53.092;8.800;2023-04-01T11:01:53;2.17;;;1.90;;
19814;SDS011;10067;53.092;8.800;2023-04-01T11:04:51;1.90;;;1.52;;
19814;SDS011;10067;53.092;8.800;2023-04-01T11:10:15;2.90;;;1.88;;
19814;SDS011;10067;53.092;8.800;2023-04-01T11:16:06;2.53;;;0.90;;
19814;SDS011;10067;53.092;8.800;2023-04-01T11:21:31;1.27;;;1.17;;
19814;SDS011;10067;53.092;8.800;2023-04-01T11:24:09;2.95;;;2.38;;
19814;SDS011;10067;53.092;8.800;2023-04-01T11:26:44;2.88;;;1.70;;
19814;SDS011;10067;53.092;8.800;2023-04-01T11:29:27;4.10;;;1.95;;
19814;SDS011;10067;53.092;8.800;2023-04-01T11:31:58;1.70;;;1.55;;
19814;SDS011;10067;53.092;8.800;2023-04-01T11:34:41;1.73;;;1.63;;
19814;SDS011;10067;53.092;8.800;2023-04-01T11:37:14;2.58;;;1.55;;
19814;SDS011;10067;53.092;8.800;2023-04-01T11:39:46;2.33;;;2.13;;
19814;SDS011;10067;53.092;8.800;2023-04-01T11:42:18;1.80;;;1.65;;
19814;SDS011;10067;53.092;8.800;2023-04-01T11:44:48;2.78;;;2.40;;
19814;SDS011;10067;53.092;8.800;2023-04-01T11:47:44;9.77;;;2.33;;
19814;SDS011;10067;53.092;8.800;2023-04-01T11:50:19;3.58;;;2.10;;
19814;SDS011;10067;53.092;8.800;2023-04-01T11:52:54;2.10;;;1.67;;
19814;SDS011;10067;53.092;8.800;2023-04-01T11:55:24;3.70;;;1.98;;
19814;SDS011;10067;53.092;8.800;2023-04-01T11:58:11;1.88;;;1.33;;
19814;SDS011;10067;53.092;8.800;2023-04-01T12:00:48;1.90;;;1.60;;
19814;SDS011;10067;53.092;8.800;2023-04-01T12:06:03;3.80;;;1.08;;
19814;SDS011;10067;53.092;8.800;2023-04-01T12:08:39;1.85;;;1.45;;
19814;SDS011;10067;53.092;8.800;2023-04-01T12:11:15;3.55;;;2.03;;
19814;SDS011;10067;53.092;8.800;2023-04-01T12:13:45;4.57;;;1.60;;
19814;SDS011;10067;53.092;8.800;2023-04-01T12:16:18;5.00;;;2.03;;
19814;SDS011;10067;53.092;8.800;2023-04-01T12:18:48;6.60;;;1.60;;
19814;SDS011;10067;53.092;8.800;2023-04-01T12:21:17;1.85;;;1.30;;
19814;SDS011;10067;53.092;8.800;2023-04-01T12:24:03;2.03;;;1.20;;
19814;SDS011;10067;53.092;8.800;2023-04-01T12:26:41;4.38;;;1.67;;
19814;SDS011;10067;53.092;8.800;2023-04-01T12:29:17;1.95;;;1.13;;
19814;SDS011;10067;53.092;8.800;2023-04-01T12:31:47;1.50;;;1.25;;
19814;SDS011;10067;53.092;8.800;2023-04-01T12:37:03;4.38;;;1.52;;
19814;SDS011;10067;53.092;8.800;2023-04-01T12:39:37;2.15;;;1.60;;
19814;SDS011;10067;53.092;8.800;2023-04-01T12:42:11;3.35;;;1.20;;
19814;SDS011;10067;53.092;8.800;2023-04-01T12:44:47;1.10;;;1.00;;
19814;SDS011;10067;53.092;8.800;2023-04-01T12:47:24;1.88;;;1.40;;
19814;SDS011;10067;53.092;8.800;2023-04-01T12:49:56;1.98;;;1.77;;
19814;SDS011;10067;53.092;8.800;2023-04-01T12:52:33;1.95;;;1.40;;
19814;SDS011;10067;53.092;8.800;2023-04-01T12:55:07;3.58;;;1.60;;
19814;SDS011;10067;53.092;8.800;2023-04-01T12:57:41;1.45;;;1.08;;
19814;SDS011;10067;53.092;8.800;2023-04-01T13:00:12;2.33;;;1.63;;
19814;SDS011;10067;53.092;8.800;2023-04-01T13:02:47;2.47;;;1.80;;
19814;SDS011;10067;53.092;8.800;2023-04-01T13:05:24;1.95;;;1.20;;
19814;SDS011;10067;53.092;8.800;2023-04-01T13:08:04;1.55;;;0.98;;
19814;SDS011;10067;53.092;8.800;2023-04-01T13:10:38;1.23;;;0.93;;
19814;SDS011;10067;53.092;8.800;2023-04-01T13:15:56;1.77;;;0.90;;
19814;SDS011;10067;53.092;8.800;2023-04-01T13:18:27;1.88;;;1.23;;
19814;SDS011;10067;53.092;8.800;2023-04-01T13:20:59;1.25;;;1.10;;
19814;SDS011;10067;53.092;8.800;2023-04-01T13:23:30;1.60;;;0.98;;
19814;SDS011;10067;53.092;8.800;2023-04-01T13:26:03;1.10;;;1.00;;
19814;SDS011;10067;53.092;8.800;2023-04-01T13:28:34;2.55;;;1.00;;
19814;SDS011;10067;53.092;8.800;2023-04-01T13:31:05;1.75;;;1.30;;
19814;SDS011;10067;53.092;8.800;2023-04-01T13:33:35;2.25;;;0.98;;
19814;SDS011;10067;53.092;8.800;2023-04-01T13:36:13;1.45;;;1.20;;
19814;SDS011;10067;53.092;8.800;2023-04-01T13:38:45;1.35;;;1.00;;
19814;SDS011;10067;53.092;8.800;2023-04-01T13:41:20;1.05;;;0.93;;
19814;SDS011;10067;53.092;8.800;2023-04-01T13:43:49;1.02;;;0.90;;
19814;SDS011;10067;53.092;8.800;2023-04-01T13:46:24;1.38;;;1.05;;
19814;SDS011;10067;53.092;8.800;2023-04-01T13:51:48;2.70;;;1.17;;
19814;SDS011;10067;53.092;8.800;2023-04-01T13:54:22;1.60;;;1.17;;
19814;SDS011;10067;53.092;8.800;2023-04-01T13:56:57;1.60;;;1.33;;
19814;SDS011;10067;53.092;8.800;2023-04-01T14:02:28;1.80;;;1.23;;
19814;SDS011;10067;53.092;8.800;2023-04-01T14:04:59;1.00;;;0.90;;
19814;SDS011;10067;53.092;8.800;2023-04-01T14:07:33;1.10;;;1.00;;
19814;SDS011;10067;53.092;8.800;2023-04-01T14:10:05;1.40;;;1.10;;
19814;SDS011;10067;53.092;8.800;2023-04-01T14:12:36;1.25;;;1.05;;
19814;SDS011;10067;53.092;8.800;2023-04-01T14:15:17;2.00;;;1.10;;
19814;SDS011;10067;53.092;8.800;2023-04-01T14:17:50;2.33;;;1.73;;
19814;SDS011;10067;53.092;8.800;2023-04-01T14:20:22;2.80;;;1.23;;
19814;SDS011;10067;53.092;8.800;2023-04-01T14:22:54;3.95;;;3.10;;
19814;SDS011;10067;53.092;8.800;2023-04-01T14:28:13;3.87;;;2.40;;
19814;SDS011;10067;53.092;8.800;2023-04-01T14:30:43;2.43;;;2.00;;
19814;SDS011;10067;53.092;8.800;2023-04-01T14:33:17;3.17;;;2.37;;
19814;SDS011;10067;53.092;8.800;2023-04-01T14:35:49;2.90;;;2.10;;
19814;SDS011;10067;53.092;8.800;2023-04-01T14:38:24;2.88;;;2.00;;
19814;SDS011;10067;53.092;8.800;2023-04-01T14:40:54;5.32;;;2.60;;
19814;SDS011;10067;53.092;8.800;2023-04-01T14:46:15;3.40;;;2.50;;
19814;SDS011;10067;53.092;8.800;2023-04-01T14:48:49;3.33;;;2.63;;
19814;SDS011;10067;53.092;8.800;2023-04-01T14:51:17;3.92;;;2.85;;
19814;SDS011;10067;53.092;8.800;2023-04-01T14:53:51;5.93;;;3.73;;
19814;SDS011;10067;53.092;8.800;2023-04-01T14:56:34;3.67;;;2.60;;
19814;SDS011;10067;53.092;8.800;2023-04-01T14:59:01;3.60;;;2.95;;
19814;SDS011;10067;53.092;8.800;2023-04-01T15:01:34;5.37;;;3.00;;
19814;SDS011;10067;53.092;8.800;2023-04-01T15:04:10;4.33;;;3.03;;
19814;SDS011;10067;53.092;8.800;2023-04-01T15:06:45;4.80;;;3.70;;
19814;SDS011;10067;53.092;8.800;2023-04-01T15:09:20;8.93;;;4.07;;
19814;SDS011;10067;53.092;8.800;2023-04-01T15:11:52;6.50;;;4.07;;
19814;SDS011;10067;53.092;8.800;2023-04-01T15:14:27;5.67;;;4.07;;
19814;SDS011;10067;53.092;8.800;2023-04-01T15:17:13;8.67;;;4.83;;
19814;SDS011;10067;53.092;8.800;2023-04-01T15:19:43;11.00;;;6.10;;
19814;SDS011;10067;53.092;8.800;2023-04-01T15:22:30;13.65;;;8.23;;
19814;SDS011;10067;53.092;8.800;2023-04-01T15:25:13;8.43;;;4.47;;
19814;SDS011;10067;53.092;8.800;2023-04-01T15:27:43;5.05;;;3.97;;
19814;SDS011;10067;53.092;8.800;2023-04-01T15:30:21;6.27;;;4.40;;
19814;SDS011;10067;53.092;8.800;2023-04-01T15:32:56;9.03;;;5.53;;
19814;SDS011;10067;53.092;8.800;2023-04-01T15:35:30;6.40;;;3.70;;
19814;SDS011;10067;53.092;8.800;2023-04-01T15:38:03;5.37;;;3.70;;
19814;SDS011;10067;53.092;8.800;2023-04-01T15:40:33;4.90;;;3.67;;
19814;SDS011;10067;53.092;8.800;2023-04-01T15:43:12;5.80;;;4.00;;
19814;SDS011;10067;53.092;8.800;2023-04-01T15:45:49;9.03;;;4.30;;
19814;SDS011;10067;53.092;8.800;2023-04-01T15:48:25;8.43;;;4.33;;
19814;SDS011;10067;53.092;8.800;2023-04-01T15:50:59;4.97;;;3.40;;
19814;SDS011;10067;53.092;8.800;2023-04-01T15:53:35;6.07;;;3.40;;
19814;SDS011;10067;53.092;8.800;2023-04-01T15:56:08;6.65;;;5.10;;
19814;SDS011;10067;53.092;8.800;2023-04-01T15:58:41;8.83;;;5.40;;
19814;SDS011;10067;53.092;8.800;2023-04-01T16:01:14;8.83;;;4.60;;
19814;SDS011;10067;53.092;8.800;2023-04-01T16:03:45;7.43;;;4.38;;
19814;SDS011;10067;53.092;8.800;2023-04-01T16:06:38;5.93;;;4.53;;
19814;SDS011;10067;53.092;8.800;2023-04-01T16:09:11;5.13;;;3.70;;
19814;SDS011;10067;53.092;8.800;2023-04-01T16:11:42;6.32;;;3.28;;
19814;SDS011;10067;53.092;8.800;2023-04-01T16:14:12;4.30;;;2.83;;
19814;SDS011;10067;53.092;8.800;2023-04-01T16:16:47;4.87;;;3.53;;
19814;SDS011;10067;53.092;8.800;2023-04-01T16:19:24;6.10;;;3.10;;
19814;SDS011;10067;53.092;8.800;2023-04-01T16:21:57;5.97;;;3.50;;